Time;durP1;ratioP1;P1;durP2;ratioP2;P2;SDS_P1;SDS_P2;PMS_P1;PMS_P2;Temp;Humidity;BMP_temperature;BMP_pressure;BME280_temperature;BME280_humidity;BME280_pressure;Samples;Min_cycle;Max_cycle;Signal;HPM_P1;HPM_P2
2022/05/14 00:00:43;;;;;;;4.22;1.70;;;;;;;;;;5007608;28;20058;-67
2022/05/14 00:03:09;;;;;;;6.05;2.15;;;;;;;;;;5007764;28;20044;-67
2022/05/14 00:05:34;;;;;;;8.50;1.80;;;;;;;;;;5005962;28;20125;-67
2022/05/14 00:08:00;;;;;;;4.18;1.70;;;;;;;;;;5007750;28;20026;-67
2022/05/14 00:10:28;;;;;;;4.35;1.95;;;;;;;;;;5004738;28;20029;-67
2022/05/14 00:13:05;;;;;;;3.30;1.73;;;;;;;;;;5021485;28;20038;-67
2022/05/14 00:15:35;;;;;;;5.05;1.88;;;;;;;;;;4996448;28;20515;-67
2022/05/14 00:18:01;;;;;;;4.53;1.58;;;;;;;;;;5007584;28;20593;-67
2022/05/14 00:20:26;;;;;;;3.42;1.75;;;;;;;;;;5007516;28;20121;-67
2022/05/14 00:22:52;;;;;;;7.40;2.22;;;;;;;;;;5005461;28;20101;-67
2022/05/14 00:25:19;;;;;;;4.88;1.77;;;;;;;;;;5002996;28;20032;-67
2022/05/14 00:27:45;;;;;;;4.03;1.98;;;;;;;;;;5005716;28;20042;-67
2022/05/14 00:30:13;;;;;;;4.32;1.85;;;;;;;;;;5006442;28;20109;-67
2022/05/14 00:32:39;;;;;;;3.10;1.58;;;;;;;;;;5002192;28;20082;-67
2022/05/14 00:35:05;;;;;;;5.30;2.15;;;;;;;;;;5006633;28;20042;-67
2022/05/14 00:37:31;;;;;;;4.88;2.03;;;;;;;;;;5007194;28;20022;-68
2022/05/14 00:39:57;;;;;;;8.55;2.40;;;;;;;;;;5004845;28;20041;-67
2022/05/14 00:42:23;;;;;;;3.75;2.00;;;;;;;;;;5003126;28;20392;-67
2022/05/14 00:44:48;;;;;;;6.07;2.03;;;;;;;;;;5020270;28;20506;-67
2022/05/14 00:47:16;;;;;;;7.28;2.15;;;;;;;;;;5007390;28;20034;-67
2022/05/14 00:49:42;;;;;;;5.65;2.05;;;;;;;;;;5007726;28;20178;-67
2022/05/14 00:52:13;;;;;;;5.43;2.15;;;;;;;;;;5007044;28;20617;-67
2022/05/14 00:54:43;;;;;;;5.95;2.58;;;;;;;;;;5004163;28;20046;-67
2022/05/14 00:57:12;;;;;;;6.70;2.63;;;;;;;;;;5005920;28;20040;-67
2022/05/14 00:59:37;;;;;;;5.82;2.33;;;;;;;;;;5006350;28;20044;-67
2022/05/14 01:02:06;;;;;;;4.82;1.75;;;;;;;;;;5005927;28;20030;-67
2022/05/14 01:04:31;;;;;;;5.80;1.90;;;;;;;;;;5007040;28;20018;-67
2022/05/14 01:07:07;;;;;;;3.40;2.10;;;;;;;;;;5003826;28;20062;-67
2022/05/14 01:09:35;;;;;;;4.88;2.25;;;;;;;;;;5006689;28;20057;-67
2022/05/14 01:12:02;;;;;;;6.63;2.50;;;;;;;;;;5003687;28;20114;-67
2022/05/14 01:14:28;;;;;;;3.20;2.00;;;;;;;;;;5006268;28;20499;-68
2022/05/14 01:16:53;;;;;;;5.55;2.45;;;;;;;;;;5006867;28;20045;-67
2022/05/14 01:19:19;;;;;;;5.63;2.58;;;;;;;;;;5005453;28;20038;-67
2022/05/14 01:22:24;;;;;;;5.68;2.42;;;;;;;;;;5005706;28;20046;-67
2022/05/14 01:27:48;;;;;;;7.43;2.67;;;;;;;;;;5004188;28;20064;-67
2022/05/14 01:30:14;;;;;;;5.45;2.60;;;;;;;;;;5006116;28;20132;-67
2022/05/14 01:32:39;;;;;;;5.30;3.05;;;;;;;;;;5006419;28;20033;-67
2022/05/14 01:35:05;;;;;;;3.72;2.60;;;;;;;;;;5006198;28;20512;-67
2022/05/14 01:37:31;;;;;;;7.03;2.80;;;;;;;;;;5006963;28;20034;-67
2022/05/14 01:39:56;;;;;;;6.68;2.80;;;;;;;;;;5006316;28;20149;-67
2022/05/14 01:42:21;;;;;;;5.20;2.88;;;;;;;;;;5004889;28;20400;-67
2022/05/14 01:44:47;;;;;;;8.20;2.90;;;;;;;;;;4990628;28;20100;-67
2022/05/14 01:47:12;;;;;;;7.25;2.80;;;;;;;;;;5006417;28;20042;-67
2022/05/14 01:49:38;;;;;;;6.68;2.72;;;;;;;;;;5006862;28;20052;-67
2022/05/14 01:52:03;;;;;;;7.13;2.80;;;;;;;;;;5002451;28;20065;-67
2022/05/14 01:54:29;;;;;;;8.13;2.83;;;;;;;;;;5005757;28;20518;-67
2022/05/14 01:56:54;;;;;;;5.95;2.85;;;;;;;;;;5005072;28;20104;-67
2022/05/14 01:59:19;;;;;;;7.38;2.70;;;;;;;;;;5003760;28;20038;-68
2022/05/14 02:01:45;;;;;;;5.80;2.80;;;;;;;;;;5006241;28;20025;-67
2022/05/14 02:04:13;;;;;;;6.47;2.95;;;;;;;;;;5002737;28;20050;-67
2022/05/14 02:06:39;;;;;;;6.93;2.70;;;;;;;;;;5005302;28;20056;-67
2022/05/14 02:09:08;;;;;;;7.50;2.92;;;;;;;;;;5005707;28;20062;-67
2022/05/14 02:11:34;;;;;;;6.03;2.38;;;;;;;;;;5003570;28;20262;-67
2022/05/14 02:14:00;;;;;;;7.38;3.20;;;;;;;;;;5007269;28;20491;-67
2022/05/14 02:16:25;;;;;;;6.30;2.90;;;;;;;;;;5009444;28;20018;-67
2022/05/14 02:18:50;;;;;;;13.73;3.28;;;;;;;;;;5009315;28;20041;-67
2022/05/14 02:21:20;;;;;;;6.40;2.83;;;;;;;;;;5009509;28;20038;-67
2022/05/14 02:23:46;;;;;;;6.15;2.80;;;;;;;;;;5007597;28;20042;-67
2022/05/14 02:26:12;;;;;;;8.25;2.97;;;;;;;;;;5003906;28;20132;-67
2022/05/14 02:28:39;;;;;;;6.22;3.03;;;;;;;;;;5010144;28;20046;-67
2022/05/14 02:31:04;;;;;;;4.93;2.45;;;;;;;;;;5006670;28;20137;-67
2022/05/14 02:33:30;;;;;;;6.05;2.90;;;;;;;;;;5009642;28;20084;-67
2022/05/14 02:35:56;;;;;;;9.45;3.40;;;;;;;;;;5008925;28;20384;-67
2022/05/14 02:38:22;;;;;;;5.75;2.97;;;;;;;;;;5009284;28;20821;-67
2022/05/14 02:40:47;;;;;;;6.53;2.72;;;;;;;;;;5010109;28;20037;-67
2022/05/14 02:43:13;;;;;;;7.38;2.70;;;;;;;;;;5007350;28;20042;-67
2022/05/14 02:45:39;;;;;;;8.35;2.80;;;;;;;;;;5007015;28;20037;-67
2022/05/14 02:48:05;;;;;;;4.78;2.60;;;;;;;;;;5008605;28;20038;-67
2022/05/14 02:50:31;;;;;;;7.80;3.22;;;;;;;;;;5008886;28;20038;-67
2022/05/14 02:52:57;;;;;;;6.80;2.65;;;;;;;;;;5008709;28;20030;-67
2022/05/14 02:55:22;;;;;;;4.82;2.40;;;;;;;;;;5008984;28;20065;-67
2022/05/14 02:57:48;;;;;;;5.13;3.00;;;;;;;;;;5008806;28;20042;-67
2022/05/14 03:00:16;;;;;;;7.45;2.85;;;;;;;;;;5003057;28;20048;-67
2022/05/14 03:02:42;;;;;;;7.90;2.90;;;;;;;;;;5008701;28;20045;-67
2022/05/14 03:05:08;;;;;;;6.40;2.80;;;;;;;;;;5006166;28;20026;-67
2022/05/14 03:07:33;;;;;;;6.97;2.60;;;;;;;;;;5009206;28;20057;-67
2022/05/14 03:09:58;;;;;;;5.13;2.65;;;;;;;;;;5008225;28;20558;-67
2022/05/14 03:12:24;;;;;;;7.13;2.60;;;;;;;;;;5008632;28;20068;-67
2022/05/14 03:14:50;;;;;;;5.97;3.20;;;;;;;;;;5008604;28;20061;-67
2022/05/14 03:17:16;;;;;;;6.95;3.25;;;;;;;;;;5008211;28;20030;-67
2022/05/14 03:19:42;;;;;;;8.43;3.55;;;;;;;;;;5006520;28;20041;-67
2022/05/14 03:22:09;;;;;;;6.63;2.80;;;;;;;;;;5007408;28;20042;-67
2022/05/14 03:24:36;;;;;;;6.78;2.67;;;;;;;;;;5005970;28;20034;-67
2022/05/14 03:27:02;;;;;;;6.07;3.05;;;;;;;;;;5006894;28;20586;-67
2022/05/14 03:29:28;;;;;;;9.70;3.03;;;;;;;;;;5008116;28;20029;-67
2022/05/14 03:31:55;;;;;;;4.22;2.40;;;;;;;;;;5008594;28;20041;-67
2022/05/14 03:34:20;;;;;;;6.65;3.22;;;;;;;;;;5007641;28;20041;-67
2022/05/14 03:36:46;;;;;;;5.75;3.00;;;;;;;;;;5006177;28;20164;-67
2022/05/14 03:39:11;;;;;;;4.90;2.90;;;;;;;;;;5007745;28;20126;-66
2022/05/14 03:41:36;;;;;;;6.68;2.70;;;;;;;;;;5007632;28;20038;-67
2022/05/14 03:44:02;;;;;;;7.20;2.80;;;;;;;;;;5003639;28;20057;-67
2022/05/14 03:46:28;;;;;;;5.75;2.72;;;;;;;;;;5003808;28;20034;-70
2022/05/14 03:48:53;;;;;;;7.40;3.30;;;;;;;;;;5000651;28;20108;-68
2022/05/14 03:51:19;;;;;;;5.22;2.88;;;;;;;;;;5001329;28;20120;-68
2022/05/14 03:53:44;;;;;;;7.00;3.05;;;;;;;;;;5007092;28;20045;-69
2022/05/14 03:56:10;;;;;;;8.18;2.97;;;;;;;;;;5003966;28;20391;-68
2022/05/14 03:58:36;;;;;;;11.60;3.67;;;;;;;;;;5007832;28;20030;-69
2022/05/14 04:01:03;;;;;;;4.85;2.78;;;;;;;;;;5005488;28;20087;-69
2022/05/14 04:03:31;;;;;;;7.05;3.10;;;;;;;;;;5007041;28;20133;-69
2022/05/14 04:05:56;;;;;;;5.05;2.55;;;;;;;;;;5007116;28;20038;-69
2022/05/14 04:08:21;;;;;;;9.45;3.40;;;;;;;;;;5006847;28;20052;-69
2022/05/14 04:10:47;;;;;;;7.80;3.38;;;;;;;;;;5007939;28;20046;-69
2022/05/14 04:13:13;;;;;;;7.75;2.95;;;;;;;;;;5007064;28;20158;-68
2022/05/14 04:15:39;;;;;;;9.15;3.55;;;;;;;;;;5006855;28;20053;-69
2022/05/14 04:18:05;;;;;;;6.72;3.45;;;;;;;;;;5006487;28;20038;-69
2022/05/14 04:20:30;;;;;;;8.90;3.60;;;;;;;;;;5019789;28;20068;-68
2022/05/14 04:22:56;;;;;;;7.82;3.42;;;;;;;;;;5022175;28;20539;-68
2022/05/14 04:25:23;;;;;;;9.70;3.30;;;;;;;;;;4998957;28;20045;-68
2022/05/14 04:27:48;;;;;;;6.07;3.15;;;;;;;;;;5005103;28;20609;-69
2022/05/14 04:30:15;;;;;;;5.43;2.75;;;;;;;;;;5007052;28;20069;-69
2022/05/14 04:32:41;;;;;;;6.60;2.75;;;;;;;;;;5006381;28;20041;-68
2022/05/14 04:35:07;;;;;;;5.10;3.10;;;;;;;;;;5004584;28;20076;-68
2022/05/14 04:37:34;;;;;;;11.77;3.45;;;;;;;;;;5006341;28;20030;-68
2022/05/14 04:40:00;;;;;;;6.60;3.22;;;;;;;;;;5007007;28;20519;-69
2022/05/14 04:42:25;;;;;;;8.85;3.15;;;;;;;;;;5007161;28;20088;-69
2022/05/14 04:44:50;;;;;;;8.88;3.78;;;;;;;;;;5006669;28;20442;-70
2022/05/14 04:47:16;;;;;;;5.53;3.22;;;;;;;;;;5006726;28;20458;-69
2022/05/14 04:49:43;;;;;;;8.38;3.17;;;;;;;;;;5002862;28;20030;-68
2022/05/14 04:52:09;;;;;;;7.80;3.33;;;;;;;;;;5006596;28;20034;-69
2022/05/14 04:54:35;;;;;;;8.57;3.22;;;;;;;;;;5004142;28;20058;-69
2022/05/14 04:57:01;;;;;;;8.48;3.00;;;;;;;;;;5006753;28;20037;-69
2022/05/14 04:59:26;;;;;;;7.25;3.10;;;;;;;;;;5006656;28;20064;-69
2022/05/14 05:04:39;;;;;;;5.75;3.15;;;;;;;;;;5004524;28;20040;-69
2022/05/14 05:07:05;;;;;;;9.93;3.45;;;;;;;;;;5006527;28;20120;-68
2022/05/14 05:09:30;;;;;;;7.55;3.80;;;;;;;;;;5004561;28;20036;-68
2022/05/14 05:11:55;;;;;;;6.80;3.28;;;;;;;;;;5005810;28;20046;-68
2022/05/14 05:14:21;;;;;;;6.45;3.30;;;;;;;;;;5004947;28;20408;-69
2022/05/14 05:16:46;;;;;;;7.70;4.00;;;;;;;;;;5006492;28;20061;-69
2022/05/14 05:19:11;;;;;;;11.88;3.95;;;;;;;;;;5002993;28;20115;-69
2022/05/14 05:21:37;;;;;;;10.55;3.67;;;;;;;;;;4996591;28;20060;-69
2022/05/14 05:24:05;;;;;;;11.73;4.00;;;;;;;;;;5003311;28;20036;-68
2022/05/14 05:26:34;;;;;;;7.18;3.38;;;;;;;;;;5015173;28;20121;-69
2022/05/14 05:28:59;;;;;;;10.13;3.67;;;;;;;;;;4989258;28;20168;-69
2022/05/14 05:31:24;;;;;;;7.70;3.50;;;;;;;;;;5004547;28;20113;-69
2022/05/14 05:33:50;;;;;;;13.82;3.58;;;;;;;;;;5003125;28;20038;-69
2022/05/14 05:36:15;;;;;;;7.85;3.47;;;;;;;;;;5005488;28;20117;-69
2022/05/14 05:38:41;;;;;;;7.22;3.05;;;;;;;;;;4995940;28;20046;-69
2022/05/14 05:41:06;;;;;;;10.57;3.92;;;;;;;;;;5005993;28;20049;-68
2022/05/14 05:43:31;;;;;;;6.93;3.63;;;;;;;;;;5006288;28;20021;-69
2022/05/14 05:45:57;;;;;;;8.65;3.60;;;;;;;;;;5005861;28;20034;-69
2022/05/14 05:48:22;;;;;;;9.73;3.30;;;;;;;;;;5004078;28;20061;-69
2022/05/14 05:50:48;;;;;;;8.00;3.70;;;;;;;;;;5002436;28;20788;-69
2022/05/14 05:53:16;;;;;;;8.23;3.17;;;;;;;;;;5002444;28;20022;-69
2022/05/14 05:58:26;;;;;;;7.10;3.28;;;;;;;;;;5005832;28;20096;-69
2022/05/14 06:00:51;;;;;;;11.43;3.60;;;;;;;;;;5006052;28;20065;-69
2022/05/14 06:03:16;;;;;;;9.00;3.33;;;;;;;;;;5001907;28;20038;-69
2022/05/14 06:05:42;;;;;;;12.13;4.10;;;;;;;;;;5005828;28;20064;-70
2022/05/14 06:08:13;;;;;;;9.73;3.17;;;;;;;;;;5005830;28;20121;-68
2022/05/14 06:10:39;;;;;;;9.15;3.30;;;;;;;;;;5006009;28;20030;-69
2022/05/14 06:13:08;;;;;;;5.28;2.95;;;;;;;;;;5003817;28;20037;-69
2022/05/14 06:15:33;;;;;;;12.27;4.10;;;;;;;;;;5005317;28;20034;-69
2022/05/14 06:18:01;;;;;;;5.55;3.60;;;;;;;;;;5000374;28;20057;-69
2022/05/14 06:20:27;;;;;;;10.45;3.85;;;;;;;;;;5005080;28;20038;-69
2022/05/14 06:22:53;;;;;;;15.50;3.67;;;;;;;;;;5004579;28;20030;-69
2022/05/14 06:25:18;;;;;;;9.02;3.83;;;;;;;;;;5002617;28;20037;-69
2022/05/14 06:27:44;;;;;;;11.13;3.67;;;;;;;;;;5005121;28;20418;-69
2022/05/14 06:30:09;;;;;;;8.57;3.60;;;;;;;;;;5005757;28;20201;-69
2022/05/14 06:32:36;;;;;;;6.68;3.42;;;;;;;;;;4999710;28;20052;-69
2022/05/14 06:35:03;;;;;;;15.05;3.90;;;;;;;;;;4997620;28;20029;-68
2022/05/14 06:37:28;;;;;;;12.18;3.75;;;;;;;;;;5001552;28;20034;-68
2022/05/14 06:39:53;;;;;;;15.38;4.32;;;;;;;;;;5000072;28;20052;-70
2022/05/14 06:42:19;;;;;;;11.55;4.50;;;;;;;;;;4999176;28;20208;-69
2022/05/14 06:44:44;;;;;;;13.15;4.03;;;;;;;;;;5000798;28;20100;-69
2022/05/14 06:47:10;;;;;;;11.20;3.63;;;;;;;;;;5013397;28;20028;-70
2022/05/14 06:49:35;;;;;;;15.05;4.55;;;;;;;;;;4998762;28;20156;-68
2022/05/14 06:52:03;;;;;;;13.27;4.32;;;;;;;;;;4995341;28;20073;-69
2022/05/14 06:54:31;;;;;;;11.27;3.70;;;;;;;;;;4994571;28;20584;-68
2022/05/14 06:56:56;;;;;;;8.88;3.90;;;;;;;;;;4990997;28;20387;-69
2022/05/14 06:59:21;;;;;;;9.93;4.38;;;;;;;;;;4991833;28;20030;-69
2022/05/14 07:01:47;;;;;;;10.95;4.20;;;;;;;;;;5002017;28;20037;-69
2022/05/14 07:06:59;;;;;;;17.33;4.88;;;;;;;;;;4996289;28;20423;-69
2022/05/14 07:09:27;;;;;;;18.15;5.50;;;;;;;;;;4995931;28;20038;-69
2022/05/14 07:11:56;;;;;;;12.52;5.38;;;;;;;;;;4999830;28;20034;-69
2022/05/14 07:14:23;;;;;;;17.80;5.53;;;;;;;;;;5009065;28;20030;-69
2022/05/14 07:16:50;;;;;;;11.43;4.95;;;;;;;;;;4992706;28;20061;-69
2022/05/14 07:19:16;;;;;;;10.75;5.50;;;;;;;;;;4992827;28;20034;-69
2022/05/14 07:21:43;;;;;;;17.52;5.68;;;;;;;;;;5000943;28;20103;-69
2022/05/14 07:24:12;;;;;;;27.48;5.95;;;;;;;;;;5001115;28;20566;-70
2022/05/14 07:26:39;;;;;;;16.52;5.40;;;;;;;;;;5002557;28;20104;-69
2022/05/14 07:29:07;;;;;;;14.60;5.50;;;;;;;;;;5001237;28;20921;-69
2022/05/14 07:31:34;;;;;;;14.30;5.05;;;;;;;;;;5004221;28;20041;-69
2022/05/14 07:33:59;;;;;;;15.95;5.57;;;;;;;;;;5018616;28;20053;-69
2022/05/14 07:36:27;;;;;;;16.52;5.68;;;;;;;;;;5006913;28;20034;-70
2022/05/14 07:38:58;;;;;;;20.00;5.88;;;;;;;;;;5006223;28;20632;-69
2022/05/14 07:41:24;;;;;;;21.98;6.38;;;;;;;;;;5003495;28;20045;-69
2022/05/14 07:43:53;;;;;;;16.13;5.97;;;;;;;;;;5003402;28;20029;-69
2022/05/14 07:46:24;;;;;;;16.40;5.53;;;;;;;;;;5003563;28;20073;-69
2022/05/14 07:48:51;;;;;;;13.40;5.85;;;;;;;;;;5004503;28;20042;-69
2022/05/14 07:51:17;;;;;;;15.43;6.15;;;;;;;;;;5001273;28;20049;-69
2022/05/14 07:53:42;;;;;;;15.23;5.63;;;;;;;;;;5006510;28;20037;-69
2022/05/14 07:56:09;;;;;;;19.15;6.35;;;;;;;;;;5002620;28;20041;-69
2022/05/14 07:58:35;;;;;;;15.20;6.05;;;;;;;;;;4999996;28;20044;-70
2022/05/14 08:01:00;;;;;;;19.52;6.57;;;;;;;;;;4997545;28;20034;-70
2022/05/14 08:03:26;;;;;;;15.52;6.22;;;;;;;;;;5003083;28;20376;-70
2022/05/14 08:05:53;;;;;;;18.15;6.38;;;;;;;;;;5001651;28;20644;-69
2022/05/14 08:08:20;;;;;;;24.15;6.50;;;;;;;;;;5000156;28;20655;-69
2022/05/14 08:10:45;;;;;;;25.92;6.40;;;;;;;;;;5004712;28;20044;-69
2022/05/14 08:13:15;;;;;;;19.10;6.55;;;;;;;;;;5005884;28;20042;-69
2022/05/14 08:15:42;;;;;;;15.25;6.25;;;;;;;;;;4993490;28;20117;-69
2022/05/14 08:18:07;;;;;;;16.20;6.13;;;;;;;;;;5007660;28;20084;-70
2022/05/14 08:20:34;;;;;;;15.55;6.47;;;;;;;;;;4992632;28;20042;-70
2022/05/14 08:25:43;;;;;;;;;;;;;;;;;;5004418;28;20037;-69
2022/05/14 08:28:08;;;;;;;16.07;5.30;;;;;;;;;;5006787;28;19952;-70
2022/05/14 08:30:35;;;;;;;16.63;5.75;;;;;;;;;;5006765;28;20307;-70
2022/05/14 08:33:01;;;;;;;17.75;6.20;;;;;;;;;;5003875;28;20058;-70
2022/05/14 08:35:27;;;;;;;17.98;5.97;;;;;;;;;;5003558;28;20037;-69
2022/05/14 08:37:55;;;;;;;18.75;6.63;;;;;;;;;;4992307;28;20503;-70
2022/05/14 08:40:37;;;;;;;16.55;6.28;;;;;;;;;;5005735;28;20789;-70
2022/05/14 08:43:06;;;;;;;17.52;5.78;;;;;;;;;;5003264;28;20189;-70
2022/05/14 08:45:36;;;;;;;17.05;6.28;;;;;;;;;;5004576;28;20041;-70
2022/05/14 08:48:13;;;;;;;15.50;6.32;;;;;;;;;;5005340;28;20048;-70
2022/05/14 08:50:39;;;;;;;17.50;7.40;;;;;;;;;;5006168;28;20049;-70
2022/05/14 08:53:10;;;;;;;21.40;7.30;;;;;;;;;;5004239;28;20041;-70
2022/05/14 08:55:54;;;;;;;18.45;7.57;;;;;;;;;;5004881;28;20615;-70
2022/05/14 08:58:41;;;;;;;20.55;7.13;;;;;;;;;;5005553;28;20048;-70
2022/05/14 09:01:07;;;;;;;18.38;8.07;;;;;;;;;;5002918;28;20038;-70
2022/05/14 09:03:33;;;;;;;16.25;7.20;;;;;;;;;;5005550;28;20037;-70
2022/05/14 09:05:59;;;;;;;17.05;6.65;;;;;;;;;;5000347;28;20050;-71
2022/05/14 09:08:25;;;;;;;16.58;7.18;;;;;;;;;;5005587;28;20108;-70
2022/05/14 09:11:05;;;;;;;20.08;6.70;;;;;;;;;;5006162;28;20034;-70
2022/05/14 09:13:41;;;;;;;18.42;6.82;;;;;;;;;;5006083;28;20054;-70
2022/05/14 09:16:07;;;;;;;15.38;6.45;;;;;;;;;;5005879;28;20092;-70
2022/05/14 09:18:43;;;;;;;15.30;6.88;;;;;;;;;;5003730;28;20042;-70
2022/05/14 09:21:18;;;;;;;16.10;6.05;;;;;;;;;;5002931;28;20038;-70
2022/05/14 09:23:49;;;;;;;17.52;6.80;;;;;;;;;;5003334;28;20523;-70
2022/05/14 09:26:20;;;;;;;15.27;6.65;;;;;;;;;;5000967;28;20041;-70
2022/05/14 09:28:49;;;;;;;20.90;6.93;;;;;;;;;;5006387;28;20058;-70
2022/05/14 09:31:26;;;;;;;14.98;5.88;;;;;;;;;;5005220;28;20048;-71
2022/05/14 09:34:03;;;;;;;12.88;5.72;;;;;;;;;;5002246;28;20034;-70
2022/05/14 09:36:29;;;;;;;12.80;5.53;;;;;;;;;;5003696;28;20523;-70
2022/05/14 09:39:09;;;;;;;16.13;5.20;;;;;;;;;;4996891;28;20030;-70
2022/05/14 09:41:49;;;;;;;14.20;5.30;;;;;;;;;;5001679;28;20923;-70
2022/05/14 09:44:24;;;;;;;10.98;4.70;;;;;;;;;;5003898;28;20080;-70
2022/05/14 09:46:52;;;;;;;15.77;5.20;;;;;;;;;;5002982;28;20029;-70
2022/05/14 09:49:25;;;;;;;11.30;5.20;;;;;;;;;;5005798;28;20038;-70
2022/05/14 09:52:13;;;;;;;15.00;4.80;;;;;;;;;;5020465;28;20403;-70
2022/05/14 09:54:47;;;;;;;15.27;5.18;;;;;;;;;;5000502;28;20137;-70
2022/05/14 09:57:31;;;;;;;15.65;5.05;;;;;;;;;;5002342;28;20038;-70
2022/05/14 10:00:16;;;;;;;12.23;4.50;;;;;;;;;;5002519;28;20045;-70
2022/05/14 10:02:43;;;;;;;14.90;3.97;;;;;;;;;;4998448;28;20546;-70
2022/05/14 10:05:11;;;;;;;15.18;5.30;;;;;;;;;;5004336;28;20026;-70
2022/05/14 10:07:46;;;;;;;17.17;5.55;;;;;;;;;;4998132;28;20068;-70
2022/05/14 10:10:26;;;;;;;15.90;5.70;;;;;;;;;;5003959;28;20071;-70
2022/05/14 10:13:03;;;;;;;13.20;4.50;;;;;;;;;;5002227;28;20073;-70
2022/05/14 10:15:42;;;;;;;16.10;5.43;;;;;;;;;;5005228;28;20145;-70
2022/05/14 10:18:20;;;;;;;14.07;5.05;;;;;;;;;;5004488;28;20096;-70
2022/05/14 10:21:00;;;;;;;18.40;6.47;;;;;;;;;;5002915;28;20527;-70
2022/05/14 10:26:47;;;;;;;19.02;6.35;;;;;;;;;;4999152;28;20526;-70
2022/05/14 10:29:58;;;;;;;14.43;6.32;;;;;;;;;;5003544;28;20109;-70
2022/05/14 10:32:30;;;;;;;23.48;7.18;;;;;;;;;;5000744;28;20037;-70
2022/05/14 10:35:18;;;;;;;14.88;6.55;;;;;;;;;;5008186;28;20045;-70
2022/05/14 10:37:55;;;;;;;22.42;6.80;;;;;;;;;;5007923;28;20045;-70
2022/05/14 10:40:28;;;;;;;17.88;6.25;;;;;;;;;;5003553;28;20038;-70
2022/05/14 10:42:53;;;;;;;21.80;7.00;;;;;;;;;;5005797;28;20552;-70
2022/05/14 10:45:26;;;;;;;16.35;7.10;;;;;;;;;;5008520;28;20026;-70
2022/05/14 10:48:12;;;;;;;17.38;6.53;;;;;;;;;;5007251;28;20044;-70
2022/05/14 10:50:37;;;;;;;15.13;6.32;;;;;;;;;;5008846;28;20095;-70
2022/05/14 10:53:06;;;;;;;20.85;6.93;;;;;;;;;;5007917;28;20025;-70
2022/05/14 10:55:41;;;;;;;14.50;6.80;;;;;;;;;;5008574;28;20034;-70
2022/05/14 10:58:07;;;;;;;16.30;6.57;;;;;;;;;;5019705;28;20034;-70
2022/05/14 11:00:41;;;;;;;15.20;6.63;;;;;;;;;;5007416;28;20042;-70
2022/05/14 11:03:22;;;;;;;14.00;6.20;;;;;;;;;;5007238;28;20729;-70
2022/05/14 11:06:06;;;;;;;15.52;6.32;;;;;;;;;;5006932;28;20038;-70
2022/05/14 11:08:39;;;;;;;11.93;6.45;;;;;;;;;;5018824;28;20044;-70
2022/05/14 11:11:15;;;;;;;16.35;6.00;;;;;;;;;;5008985;28;20088;-70
2022/05/14 11:13:42;;;;;;;15.75;6.55;;;;;;;;;;5005444;28;20689;-70
2022/05/14 11:16:12;;;;;;;19.05;6.72;;;;;;;;;;4990965;28;20121;-70
2022/05/14 11:18:50;;;;;;;12.73;7.03;;;;;;;;;;5006198;28;20084;-70
2022/05/14 11:21:18;;;;;;;17.63;6.90;;;;;;;;;;5008173;28;20116;-70
2022/05/14 11:23:51;;;;;;;16.60;6.50;;;;;;;;;;5006522;28;20066;-70
2022/05/14 11:26:17;;;;;;;16.85;6.80;;;;;;;;;;4998636;28;20025;-70
2022/05/14 11:28:44;;;;;;;12.80;5.93;;;;;;;;;;5007848;28;20053;-70
2022/05/14 11:31:14;;;;;;;14.52;5.95;;;;;;;;;;5002852;28;20042;-70
2022/05/14 11:33:39;;;;;;;17.55;5.55;;;;;;;;;;5005567;28;20061;-70
2022/05/14 11:36:11;;;;;;;13.98;6.00;;;;;;;;;;5006972;28;20471;-70
2022/05/14 11:38:39;;;;;;;19.05;5.93;;;;;;;;;;5007713;28;20061;-70
2022/05/14 11:41:08;;;;;;;11.60;5.95;;;;;;;;;;5006595;28;20033;-70
2022/05/14 11:43:36;;;;;;;13.32;6.47;;;;;;;;;;5007104;28;20199;-70
2022/05/14 11:46:24;;;;;;;18.65;6.88;;;;;;;;;;5004217;28;20038;-70
2022/05/14 11:48:54;;;;;;;15.27;6.97;;;;;;;;;;5003937;28;20046;-70
2022/05/14 11:51:22;;;;;;;16.33;6.78;;;;;;;;;;5003583;28;20037;-70
2022/05/14 11:54:00;;;;;;;15.40;6.63;;;;;;;;;;5007487;28;20038;-70
2022/05/14 11:56:33;;;;;;;14.95;6.50;;;;;;;;;;5007186;28;20045;-70
2022/05/14 11:59:12;;;;;;;17.95;7.05;;;;;;;;;;5005292;28;20518;-70
2022/05/14 12:01:42;;;;;;;14.38;5.82;;;;;;;;;;5002977;28;20025;-70
2022/05/14 12:04:27;;;;;;;19.55;7.03;;;;;;;;;;5006652;28;20034;-70
2022/05/14 12:06:53;;;;;;;13.98;6.43;;;;;;;;;;5002848;28;20037;-70
2022/05/14 12:09:22;;;;;;;13.05;6.88;;;;;;;;;;5006027;28;20561;-70
2022/05/14 12:12:10;;;;;;;15.32;6.25;;;;;;;;;;5005357;28;20061;-70
2022/05/14 12:14:36;;;;;;;16.67;6.03;;;;;;;;;;5005931;28;20046;-70
2022/05/14 12:17:05;;;;;;;12.07;6.13;;;;;;;;;;5002880;28;20036;-70
2022/05/14 12:19:34;;;;;;;15.23;6.63;;;;;;;;;;5007051;28;20050;-70
2022/05/14 12:22:07;;;;;;;13.63;6.43;;;;;;;;;;5000233;28;20116;-70
2022/05/14 12:24:36;;;;;;;14.65;6.22;;;;;;;;;;5006423;28;20033;-70
2022/05/14 12:27:07;;;;;;;14.73;6.82;;;;;;;;;;5004597;28;20049;-70
2022/05/14 12:29:34;;;;;;;13.48;6.13;;;;;;;;;;5006005;28;20030;-70
2022/05/14 12:34:44;;;;;;;13.95;5.88;;;;;;;;;;5004313;28;20454;-70
2022/05/14 12:37:54;;;;;;;11.18;5.72;;;;;;;;;;5005469;28;20046;-72
2022/05/14 12:40:25;;;;;;;9.27;5.07;;;;;;;;;;4983955;28;20050;-71
2022/05/14 12:42:52;;;;;;;13.30;5.90;;;;;;;;;;4998804;28;20037;-71
2022/05/14 12:45:18;;;;;;;14.63;5.38;;;;;;;;;;5004509;28;20209;-71
2022/05/14 12:47:44;;;;;;;12.55;5.95;;;;;;;;;;5003572;28;20543;-71
2022/05/14 12:50:21;;;;;;;11.93;5.18;;;;;;;;;;5005471;28;20096;-71
2022/05/14 12:52:56;;;;;;;13.73;5.30;;;;;;;;;;5001290;28;20032;-71
2022/05/14 12:55:22;;;;;;;14.30;5.63;;;;;;;;;;5000481;28;20026;-71
2022/05/14 12:57:48;;;;;;;13.05;5.82;;;;;;;;;;5001817;28;20034;-71
2022/05/14 13:00:17;;;;;;;15.95;4.75;;;;;;;;;;5005421;28;20045;-71
2022/05/14 13:02:47;;;;;;;13.88;5.18;;;;;;;;;;5006144;28;20034;-71
2022/05/14 13:05:23;;;;;;;11.98;5.13;;;;;;;;;;5005261;28;20024;-71
2022/05/14 13:07:58;;;;;;;14.23;5.53;;;;;;;;;;5005183;28;20036;-71
2022/05/14 13:10:28;;;;;;;10.90;4.80;;;;;;;;;;5004772;28;20917;-71
2022/05/14 13:12:56;;;;;;;13.05;5.38;;;;;;;;;;5001633;28;20105;-71
2022/05/14 13:15:40;;;;;;;10.43;4.90;;;;;;;;;;5004905;28;20033;-71
2022/05/14 13:18:14;;;;;;;13.00;5.53;;;;;;;;;;5003738;28;20133;-71
2022/05/14 13:20:41;;;;;;;10.93;5.00;;;;;;;;;;5005038;28;20091;-71
2022/05/14 13:23:16;;;;;;;12.38;4.53;;;;;;;;;;5005701;28;20026;-71
2022/05/14 13:25:41;;;;;;;9.00;4.03;;;;;;;;;;5002799;28;20036;-71
2022/05/14 13:28:16;;;;;;;11.27;4.90;;;;;;;;;;5000472;28;20045;-71
2022/05/14 13:30:43;;;;;;;8.38;4.68;;;;;;;;;;5004762;28;20038;-71
2022/05/14 13:33:23;;;;;;;10.60;4.25;;;;;;;;;;5005351;28;20057;-71
2022/05/14 13:38:38;;;;;;;12.20;5.38;;;;;;;;;;5005916;28;20566;-71
2022/05/14 13:41:07;;;;;;;11.18;4.90;;;;;;;;;;5002248;28;20018;-71
2022/05/14 13:43:36;;;;;;;9.35;4.00;;;;;;;;;;5005887;28;20036;-71
2022/05/14 13:46:11;;;;;;;14.02;5.20;;;;;;;;;;5003284;28;20464;-71
2022/05/14 13:48:38;;;;;;;10.15;4.82;;;;;;;;;;4996907;28;20035;-71
2022/05/14 13:51:22;;;;;;;7.25;3.70;;;;;;;;;;5003554;28;20507;-71
2022/05/14 13:54:05;;;;;;;10.80;3.90;;;;;;;;;;5004131;28;20045;-71
2022/05/14 13:56:31;;;;;;;7.60;3.45;;;;;;;;;;5004549;28;20687;-71
2022/05/14 13:59:06;;;;;;;7.55;3.83;;;;;;;;;;5004832;28;20030;-72
2022/05/14 14:01:47;;;;;;;11.38;4.38;;;;;;;;;;5018156;28;20046;-71
2022/05/14 14:04:24;;;;;;;10.65;3.72;;;;;;;;;;5000375;28;20683;-70
2022/05/14 14:06:54;;;;;;;12.27;3.67;;;;;;;;;;5003986;28;20305;-71
2022/05/14 14:09:19;;;;;;;10.15;3.58;;;;;;;;;;5006862;28;20083;-71
2022/05/14 14:11:45;;;;;;;9.38;4.10;;;;;;;;;;5005048;28;20034;-71
2022/05/14 14:14:11;;;;;;;7.45;3.25;;;;;;;;;;5006746;28;20540;-71
2022/05/14 14:16:37;;;;;;;11.02;3.47;;;;;;;;;;5009661;28;20025;-71
2022/05/14 14:19:02;;;;;;;7.20;3.60;;;;;;;;;;5009192;28;20040;-71
2022/05/14 14:21:28;;;;;;;10.68;4.13;;;;;;;;;;5008801;28;20030;-71
2022/05/14 14:23:56;;;;;;;11.60;4.25;;;;;;;;;;5006838;28;20026;-71
2022/05/14 14:26:21;;;;;;;9.70;3.72;;;;;;;;;;5002068;28;20030;-71
2022/05/14 14:28:47;;;;;;;7.10;3.80;;;;;;;;;;5007124;28;20041;-70
2022/05/14 14:31:17;;;;;;;14.98;4.35;;;;;;;;;;5023336;28;20034;-70
2022/05/14 14:33:43;;;;;;;10.68;3.92;;;;;;;;;;5002594;28;20522;-71
2022/05/14 14:36:09;;;;;;;10.23;4.05;;;;;;;;;;5006737;28;20050;-71
2022/05/14 14:38:35;;;;;;;10.43;4.05;;;;;;;;;;5008419;28;20036;-71
2022/05/14 14:41:00;;;;;;;11.13;3.97;;;;;;;;;;5008694;28;20108;-71
2022/05/14 14:43:26;;;;;;;11.90;4.32;;;;;;;;;;5006898;28;20164;-71
2022/05/14 14:45:53;;;;;;;7.43;3.85;;;;;;;;;;5008341;28;20030;-71
2022/05/14 14:48:19;;;;;;;13.30;4.10;;;;;;;;;;5008535;28;20037;-71
2022/05/14 14:50:45;;;;;;;10.57;3.55;;;;;;;;;;5003090;28;20133;-70
2022/05/14 14:53:11;;;;;;;12.93;3.97;;;;;;;;;;5007263;28;20649;-71
2022/05/14 14:55:37;;;;;;;10.38;4.32;;;;;;;;;;5007803;28;20034;-71
2022/05/14 14:58:02;;;;;;;10.52;3.40;;;;;;;;;;5008971;28;20034;-71
2022/05/14 15:00:30;;;;;;;9.50;3.20;;;;;;;;;;5008041;28;20048;-71
2022/05/14 15:03:13;;;;;;;8.77;3.45;;;;;;;;;;5008641;28;20041;-70
2022/05/14 15:05:42;;;;;;;9.45;3.35;;;;;;;;;;5008740;28;20057;-71
2022/05/14 15:08:10;;;;;;;11.90;3.97;;;;;;;;;;5008170;28;20022;-71